sensor_id;sensor_type;location;lat;lon;timestamp;pressure;altitude;pressure_sealevel;temperature;humidity
76060;BME280;64759;52.220;5.170;2023-01-13T00:01:12;100209.16;;;9.39;75.73
76060;BME280;64759;52.220;5.170;2023-01-13T00:03:39;100212.34;;;9.33;75.15
76060;BME280;64759;52.220;5.170;2023-01-13T00:06:05;100204.31;;;9.36;74.63
76060;BME280;64759;52.220;5.170;2023-01-13T00:08:31;100216.59;;;9.24;74.62
76060;BME280;64759;52.220;5.170;2023-01-13T00:10:56;100212.69;;;9.20;73.78
76060;BME280;64759;52.220;5.170;2023-01-13T00:13:22;100214.09;;;9.14;73.79
76060;BME280;64759;52.220;5.170;2023-01-13T00:16:05;100211.66;;;9.13;73.21
76060;BME280;64759;52.220;5.170;2023-01-13T00:18:32;100207.44;;;9.12;73.89
76060;BME280;64759;52.220;5.170;2023-01-13T00:23:23;100218.94;;;9.00;73.46
76060;BME280;64759;52.220;5.170;2023-01-13T00:25:49;100219.81;;;8.91;72.62
76060;BME280;64759;52.220;5.170;2023-01-13T00:28:14;100217.34;;;8.99;72.29
76060;BME280;64759;52.220;5.170;2023-01-13T00:30:39;100205.97;;;8.92;72.74
76060;BME280;64759;52.220;5.170;2023-01-13T00:33:05;100204.56;;;8.97;72.91
76060;BME280;64759;52.220;5.170;2023-01-13T00:35:30;100199.56;;;8.96;73.05
76060;BME280;64759;52.220;5.170;2023-01-13T00:37:55;100201.75;;;8.91;73.48
76060;BME280;64759;52.220;5.170;2023-01-13T00:40:21;100191.16;;;8.94;72.96
76060;BME280;64759;52.220;5.170;2023-01-13T00:42:46;100200.22;;;8.98;72.45
76060;BME280;64759;52.220;5.170;2023-01-13T00:45:30;100185.44;;;8.90;72.86
76060;BME280;64759;52.220;5.170;2023-01-13T00:47:56;100183.53;;;8.92;72.98
76060;BME280;64759;52.220;5.170;2023-01-13T00:50:22;100182.63;;;8.84;72.89
76060;BME280;64759;52.220;5.170;2023-01-13T00:52:47;100165.22;;;8.86;73.26
76060;BME280;64759;52.220;5.170;2023-01-13T00:55:12;100160.06;;;8.86;73.30
76060;BME280;64759;52.220;5.170;2023-01-13T00:57:38;100170.84;;;8.81;73.65
76060;BME280;64759;52.220;5.170;2023-01-13T01:00:04;100164.19;;;8.79;74.83
76060;BME280;64759;52.220;5.170;2023-01-13T01:02:29;100169.41;;;8.69;74.98
76060;BME280;64759;52.220;5.170;2023-01-13T01:04:55;100167.88;;;8.76;75.52
76060;BME280;64759;52.220;5.170;2023-01-13T01:07:20;100174.41;;;8.71;75.26
76060;BME280;64759;52.220;5.170;2023-01-13T01:09:46;100155.91;;;8.75;76.04
76060;BME280;64759;52.220;5.170;2023-01-13T01:12:11;100144.66;;;8.76;76.18
76060;BME280;64759;52.220;5.170;2023-01-13T01:14:36;100150.75;;;8.75;76.27
76060;BME280;64759;52.220;5.170;2023-01-13T01:17:02;100142.19;;;8.75;76.83
76060;BME280;64759;52.220;5.170;2023-01-13T01:19:27;100136.09;;;8.76;77.61
76060;BME280;64759;52.220;5.170;2023-01-13T01:21:53;100144.94;;;8.73;77.66
76060;BME280;64759;52.220;5.170;2023-01-13T01:24:19;100153.50;;;8.74;78.10
76060;BME280;64759;52.220;5.170;2023-01-13T01:26:44;100163.53;;;8.77;78.74
76060;BME280;64759;52.220;5.170;2023-01-13T01:29:12;100174.97;;;8.74;78.49
76060;BME280;64759;52.220;5.170;2023-01-13T01:31:39;100163.81;;;8.74;79.06
76060;BME280;64759;52.220;5.170;2023-01-13T01:34:05;100172.50;;;8.73;78.94
76060;BME280;64759;52.220;5.170;2023-01-13T01:36:30;100192.88;;;8.76;79.46
76060;BME280;64759;52.220;5.170;2023-01-13T01:38:57;100195.59;;;8.74;79.79
76060;BME280;64759;52.220;5.170;2023-01-13T01:41:25;100192.38;;;8.72;79.11
76060;BME280;64759;52.220;5.170;2023-01-13T01:43:55;100188.16;;;8.71;79.49
76060;BME280;64759;52.220;5.170;2023-01-13T01:46:25;100182.38;;;8.77;79.29
76060;BME280;64759;52.220;5.170;2023-01-13T01:48:51;100176.13;;;8.80;79.35
76060;BME280;64759;52.220;5.170;2023-01-13T01:51:17;100164.69;;;8.82;79.63
76060;BME280;64759;52.220;5.170;2023-01-13T01:53:43;100167.88;;;8.76;80.21
76060;BME280;64759;52.220;5.170;2023-01-13T01:56:09;100168.06;;;8.65;80.33
76060;BME280;64759;52.220;5.170;2023-01-13T01:58:39;100160.31;;;8.65;80.49
76060;BME280;64759;52.220;5.170;2023-01-13T02:01:10;100163.59;;;8.67;80.63
76060;BME280;64759;52.220;5.170;2023-01-13T02:03:38;100157.75;;;8.65;80.86
76060;BME280;64759;52.220;5.170;2023-01-13T02:06:07;100154.38;;;8.65;80.18
76060;BME280;64759;52.220;5.170;2023-01-13T02:08:33;100162.25;;;8.63;79.98
76060;BME280;64759;52.220;5.170;2023-01-13T02:10:59;100173.16;;;8.57;80.27
76060;BME280;64759;52.220;5.170;2023-01-13T02:13:25;100173.00;;;8.59;80.48
76060;BME280;64759;52.220;5.170;2023-01-13T02:18:29;100164.59;;;8.57;79.53
76060;BME280;64759;52.220;5.170;2023-01-13T02:21:17;100159.88;;;8.52;79.85
76060;BME280;64759;52.220;5.170;2023-01-13T02:29:59;100143.34;;;8.63;79.58
76060;BME280;64759;52.220;5.170;2023-01-13T02:35:49;100129.50;;;8.64;78.48
76060;BME280;64759;52.220;5.170;2023-01-13T02:38:23;100120.09;;;8.72;78.45
76060;BME280;64759;52.220;5.170;2023-01-13T02:43:31;100118.84;;;8.76;78.05
76060;BME280;64759;52.220;5.170;2023-01-13T02:46:32;100114.94;;;8.72;78.31
76060;BME280;64759;52.220;5.170;2023-01-13T02:49:04;100116.16;;;8.68;78.01
76060;BME280;64759;52.220;5.170;2023-01-13T02:51:31;100122.97;;;8.69;77.97
76060;BME280;64759;52.220;5.170;2023-01-13T02:54:02;100116.81;;;8.70;77.36
76060;BME280;64759;52.220;5.170;2023-01-13T02:56:33;100122.28;;;8.67;77.96
76060;BME280;64759;52.220;5.170;2023-01-13T02:59:00;100117.91;;;8.68;77.50
76060;BME280;64759;52.220;5.170;2023-01-13T03:01:26;100124.88;;;8.67;77.42
76060;BME280;64759;52.220;5.170;2023-01-13T03:03:52;100126.47;;;8.68;76.88
76060;BME280;64759;52.220;5.170;2023-01-13T03:06:31;100128.25;;;8.68;77.38
76060;BME280;64759;52.220;5.170;2023-01-13T03:09:10;100125.66;;;8.68;76.83
76060;BME280;64759;52.220;5.170;2023-01-13T03:11:55;100122.97;;;8.69;76.35
76060;BME280;64759;52.220;5.170;2023-01-13T03:17:54;100129.50;;;8.64;77.01
76060;BME280;64759;52.220;5.170;2023-01-13T03:20:27;100126.25;;;8.62;76.18
76060;BME280;64759;52.220;5.170;2023-01-13T03:23:06;100127.47;;;8.67;76.47
76060;BME280;64759;52.220;5.170;2023-01-13T03:25:53;100126.38;;;8.60;75.39
76060;BME280;64759;52.220;5.170;2023-01-13T03:28:28;100125.44;;;8.61;75.70
76060;BME280;64759;52.220;5.170;2023-01-13T03:31:02;100124.50;;;8.62;75.12
76060;BME280;64759;52.220;5.170;2023-01-13T03:33:53;100128.69;;;8.63;75.48
76060;BME280;64759;52.220;5.170;2023-01-13T03:36:22;100123.41;;;8.65;75.80
76060;BME280;64759;52.220;5.170;2023-01-13T03:38:57;100120.81;;;8.65;76.34
76060;BME280;64759;52.220;5.170;2023-01-13T03:41:29;100117.91;;;8.68;75.60
76060;BME280;64759;52.220;5.170;2023-01-13T03:44:05;100125.81;;;8.66;75.63
76060;BME280;64759;52.220;5.170;2023-01-13T03:49:47;100122.59;;;8.64;75.78
76060;BME280;64759;52.220;5.170;2023-01-13T03:52:21;100119.91;;;8.56;75.84
76060;BME280;64759;52.220;5.170;2023-01-13T03:54:55;100108.63;;;8.57;75.89
76060;BME280;64759;52.220;5.170;2023-01-13T03:57:27;100122.94;;;8.51;75.70
76060;BME280;64759;52.220;5.170;2023-01-13T03:59:56;100124.56;;;8.52;76.37
76060;BME280;64759;52.220;5.170;2023-01-13T04:02:44;100110.41;;;8.57;76.23
76060;BME280;64759;52.220;5.170;2023-01-13T04:05:12;100122.03;;;8.61;77.15
76060;BME280;64759;52.220;5.170;2023-01-13T04:10:17;100123.06;;;8.50;77.39
76060;BME280;64759;52.220;5.170;2023-01-13T04:12:56;100126.31;;;8.52;77.24
76060;BME280;64759;52.220;5.170;2023-01-13T04:15:29;100118.00;;;8.58;77.77
76060;BME280;64759;52.220;5.170;2023-01-13T04:18:01;100118.28;;;8.55;77.78
76060;BME280;64759;52.220;5.170;2023-01-13T04:20:32;100131.47;;;8.52;77.62
76060;BME280;64759;52.220;5.170;2023-01-13T04:22:58;100123.44;;;8.55;76.92
76060;BME280;64759;52.220;5.170;2023-01-13T04:25:23;100127.50;;;8.57;77.09
76060;BME280;64759;52.220;5.170;2023-01-13T04:27:48;100123.59;;;8.53;77.65
76060;BME280;64759;52.220;5.170;2023-01-13T04:30:14;100115.03;;;8.53;77.53
76060;BME280;64759;52.220;5.170;2023-01-13T04:32:39;100113.41;;;8.52;77.85
76060;BME280;64759;52.220;5.170;2023-01-13T04:35:05;100109.50;;;8.48;77.28
76060;BME280;64759;52.220;5.170;2023-01-13T04:37:32;100101.91;;;8.46;77.87
76060;BME280;64759;52.220;5.170;2023-01-13T04:39:57;100122.31;;;8.40;77.67
76060;BME280;64759;52.220;5.170;2023-01-13T04:42:23;100120.03;;;8.37;76.76
76060;BME280;64759;52.220;5.170;2023-01-13T04:44:48;100115.00;;;8.26;76.93
76060;BME280;64759;52.220;5.170;2023-01-13T04:47:14;100137.97;;;8.29;76.85
76060;BME280;64759;52.220;5.170;2023-01-13T04:49:39;100127.75;;;8.37;76.75
76060;BME280;64759;52.220;5.170;2023-01-13T04:52:04;100128.75;;;8.26;75.98
76060;BME280;64759;52.220;5.170;2023-01-13T04:54:31;100119.63;;;8.32;76.38
76060;BME280;64759;52.220;5.170;2023-01-13T04:56:56;100125.91;;;8.29;76.35
76060;BME280;64759;52.220;5.170;2023-01-13T04:59:22;100121.94;;;8.35;75.80
76060;BME280;64759;52.220;5.170;2023-01-13T05:01:47;100106.75;;;8.32;76.14
76060;BME280;64759;52.220;5.170;2023-01-13T05:04:12;100109.47;;;8.30;76.28
76060;BME280;64759;52.220;5.170;2023-01-13T05:06:39;100114.09;;;8.27;76.10
76060;BME280;64759;52.220;5.170;2023-01-13T05:09:05;100123.84;;;8.23;75.76
76060;BME280;64759;52.220;5.170;2023-01-13T05:11:30;100123.72;;;8.25;76.10
76060;BME280;64759;52.220;5.170;2023-01-13T05:14:15;100111.63;;;8.25;75.81
76060;BME280;64759;52.220;5.170;2023-01-13T05:16:58;100107.84;;;8.20;75.75
76060;BME280;64759;52.220;5.170;2023-01-13T05:19:35;100115.72;;;8.28;75.40
76060;BME280;64759;52.220;5.170;2023-01-13T05:22:01;100117.59;;;8.26;76.00
76060;BME280;64759;52.220;5.170;2023-01-13T05:24:45;100115.00;;;8.26;76.38
76060;BME280;64759;52.220;5.170;2023-01-13T05:27:30;100114.63;;;8.30;76.26
76060;BME280;64759;52.220;5.170;2023-01-13T05:29:56;100108.66;;;8.30;76.21
76060;BME280;64759;52.220;5.170;2023-01-13T05:32:22;100104.03;;;8.24;76.40
76060;BME280;64759;52.220;5.170;2023-01-13T05:34:48;100099.19;;;8.11;76.40
76060;BME280;64759;52.220;5.170;2023-01-13T05:37:14;100110.94;;;8.23;76.77
76060;BME280;64759;52.220;5.170;2023-01-13T05:39:40;100113.53;;;8.33;77.13
76060;BME280;64759;52.220;5.170;2023-01-13T05:42:24;100115.56;;;8.29;76.91
76060;BME280;64759;52.220;5.170;2023-01-13T05:45:09;100118.31;;;8.28;76.44
76060;BME280;64759;52.220;5.170;2023-01-13T05:47:34;100116.78;;;8.35;76.19
76060;BME280;64759;52.220;5.170;2023-01-13T05:50:00;100117.94;;;8.40;76.09
76060;BME280;64759;52.220;5.170;2023-01-13T05:52:25;100122.81;;;8.43;75.61
76060;BME280;64759;52.220;5.170;2023-01-13T05:54:50;100122.38;;;8.48;74.39
76060;BME280;64759;52.220;5.170;2023-01-13T05:57:16;100122.16;;;8.41;74.21
76060;BME280;64759;52.220;5.170;2023-01-13T05:59:41;100135.97;;;8.50;74.37
76060;BME280;64759;52.220;5.170;2023-01-13T06:02:07;100127.94;;;8.53;73.33
76060;BME280;64759;52.220;5.170;2023-01-13T06:04:32;100126.88;;;8.46;72.81
76060;BME280;64759;52.220;5.170;2023-01-13T06:06:58;100122.66;;;8.54;73.69
76060;BME280;64759;52.220;5.170;2023-01-13T06:09:23;100114.09;;;8.54;73.18
76060;BME280;64759;52.220;5.170;2023-01-13T06:11:48;100129.13;;;8.59;73.01
76060;BME280;64759;52.220;5.170;2023-01-13T06:14:14;100119.41;;;8.52;72.89
76060;BME280;64759;52.220;5.170;2023-01-13T06:16:39;100119.53;;;8.51;72.94
76060;BME280;64759;52.220;5.170;2023-01-13T06:19:05;100105.09;;;8.58;73.70
76060;BME280;64759;52.220;5.170;2023-01-13T06:21:40;100124.13;;;8.57;73.23
76060;BME280;64759;52.220;5.170;2023-01-13T06:24:06;100123.16;;;8.58;73.10
76060;BME280;64759;52.220;5.170;2023-01-13T06:26:38;100120.19;;;8.53;72.90
76060;BME280;64759;52.220;5.170;2023-01-13T06:29:04;100128.19;;;8.60;73.00
76060;BME280;64759;52.220;5.170;2023-01-13T06:31:31;100136.88;;;8.59;73.25
76060;BME280;64759;52.220;5.170;2023-01-13T06:34:07;100134.81;;;8.62;73.26
76060;BME280;64759;52.220;5.170;2023-01-13T06:36:39;100135.97;;;8.50;72.53
76060;BME280;64759;52.220;5.170;2023-01-13T06:39:07;100138.34;;;8.61;73.06
76060;BME280;64759;52.220;5.170;2023-01-13T06:41:34;100138.78;;;8.57;72.90
76060;BME280;64759;52.220;5.170;2023-01-13T06:44:19;100139.28;;;8.60;73.38
76060;BME280;64759;52.220;5.170;2023-01-13T06:46:46;100146.09;;;8.61;73.42
76060;BME280;64759;52.220;5.170;2023-01-13T06:49:11;100137.53;;;8.61;72.52
76060;BME280;64759;52.220;5.170;2023-01-13T06:51:37;100138.34;;;8.61;72.94
76060;BME280;64759;52.220;5.170;2023-01-13T06:54:02;100131.94;;;8.65;72.58
76060;BME280;64759;52.220;5.170;2023-01-13T06:56:28;100126.38;;;8.60;72.39
76060;BME280;64759;52.220;5.170;2023-01-13T06:58:53;100141.97;;;8.68;72.17
76060;BME280;64759;52.220;5.170;2023-01-13T07:01:19;100136.81;;;8.68;72.10
76060;BME280;64759;52.220;5.170;2023-01-13T07:03:44;100123.84;;;8.78;71.59
76060;BME280;64759;52.220;5.170;2023-01-13T07:06:09;100140.44;;;8.75;71.68
76060;BME280;64759;52.220;5.170;2023-01-13T07:08:35;100143.66;;;8.77;71.79
76060;BME280;64759;52.220;5.170;2023-01-13T07:11:01;100148.53;;;8.80;71.60
76060;BME280;64759;52.220;5.170;2023-01-13T07:13:26;100144.09;;;8.73;71.24
76060;BME280;64759;52.220;5.170;2023-01-13T07:16:11;100146.13;;;8.79;71.40
76060;BME280;64759;52.220;5.170;2023-01-13T07:18:36;100149.66;;;8.78;71.11
76060;BME280;64759;52.220;5.170;2023-01-13T07:21:07;100155.47;;;8.80;71.42
76060;BME280;64759;52.220;5.170;2023-01-13T07:23:40;100156.81;;;8.84;71.09
76060;BME280;64759;52.220;5.170;2023-01-13T07:26:07;100165.38;;;8.84;71.38
76060;BME280;64759;52.220;5.170;2023-01-13T07:28:33;100165.94;;;8.78;71.58
76060;BME280;64759;52.220;5.170;2023-01-13T07:31:00;100165.28;;;8.76;71.21
76060;BME280;64759;52.220;5.170;2023-01-13T07:33:25;100163.00;;;8.73;71.97
76060;BME280;64759;52.220;5.170;2023-01-13T07:35:56;100167.34;;;8.73;71.81
76060;BME280;64759;52.220;5.170;2023-01-13T07:38:22;100170.34;;;8.68;72.93
76060;BME280;64759;52.220;5.170;2023-01-13T07:40:47;100172.19;;;8.58;72.53
76060;BME280;64759;52.220;5.170;2023-01-13T07:43:12;100182.75;;;8.65;73.42
76060;BME280;64759;52.220;5.170;2023-01-13T07:46:00;100190.63;;;8.63;73.71
76060;BME280;64759;52.220;5.170;2023-01-13T07:48:26;100191.22;;;8.57;74.08
76060;BME280;64759;52.220;5.170;2023-01-13T07:50:52;100193.34;;;8.62;74.21
76060;BME280;64759;52.220;5.170;2023-01-13T07:53:18;100193.53;;;8.50;74.47
76060;BME280;64759;52.220;5.170;2023-01-13T07:55:43;100189.19;;;8.51;74.72
76060;BME280;64759;52.220;5.170;2023-01-13T07:58:09;100201.59;;;8.47;75.28
76060;BME280;64759;52.220;5.170;2023-01-13T08:00:36;100203.34;;;8.47;75.21
76060;BME280;64759;52.220;5.170;2023-01-13T08:03:02;100196.31;;;8.39;75.25
76060;BME280;64759;52.220;5.170;2023-01-13T08:05:27;100186.50;;;8.43;74.98
76060;BME280;64759;52.220;5.170;2023-01-13T08:07:52;100213.00;;;8.35;75.59
76060;BME280;64759;52.220;5.170;2023-01-13T08:10:18;100207.34;;;8.32;76.22
76060;BME280;64759;52.220;5.170;2023-01-13T08:12:44;100209.91;;;8.32;76.87
76060;BME280;64759;52.220;5.170;2023-01-13T08:15:28;100216.72;;;8.14;77.75
76060;BME280;64759;52.220;5.170;2023-01-13T08:17:55;100203.44;;;8.09;78.37
76060;BME280;64759;52.220;5.170;2023-01-13T08:20:20;100217.81;;;8.11;77.95
76060;BME280;64759;52.220;5.170;2023-01-13T08:22:45;100212.81;;;8.10;78.41
76060;BME280;64759;52.220;5.170;2023-01-13T08:25:11;100214.72;;;8.08;78.54
76060;BME280;64759;52.220;5.170;2023-01-13T08:27:36;100218.22;;;8.07;79.18
76060;BME280;64759;52.220;5.170;2023-01-13T08:30:02;100219.47;;;8.03;79.55
76060;BME280;64759;52.220;5.170;2023-01-13T08:32:27;100223.25;;;7.99;79.99
76060;BME280;64759;52.220;5.170;2023-01-13T08:34:53;100230.59;;;8.03;79.92
76060;BME280;64759;52.220;5.170;2023-01-13T08:37:18;100228.97;;;8.02;80.14
76060;BME280;64759;52.220;5.170;2023-01-13T08:39:44;100236.56;;;8.04;79.96
76060;BME280;64759;52.220;5.170;2023-01-13T08:42:09;100218.13;;;8.08;78.62
76060;BME280;64759;52.220;5.170;2023-01-13T08:44:35;100230.03;;;8.09;79.08
76060;BME280;64759;52.220;5.170;2023-01-13T08:47:00;100240.78;;;8.05;80.15
76060;BME280;64759;52.220;5.170;2023-01-13T08:49:25;100235.75;;;8.13;79.99
76060;BME280;64759;52.220;5.170;2023-01-13T08:51:52;100227.72;;;8.06;78.83
76060;BME280;64759;52.220;5.170;2023-01-13T08:54:18;100237.66;;;8.11;78.99
76060;BME280;64759;52.220;5.170;2023-01-13T08:56:44;100242.38;;;8.15;79.25
76060;BME280;64759;52.220;5.170;2023-01-13T08:59:14;100245.63;;;8.17;78.90
76060;BME280;64759;52.220;5.170;2023-01-13T09:01:40;100254.69;;;8.21;78.91
76060;BME280;64759;52.220;5.170;2023-01-13T09:04:16;100247.41;;;8.26;78.09
76060;BME280;64759;52.220;5.170;2023-01-13T09:06:44;100252.53;;;8.17;77.93
76060;BME280;64759;52.220;5.170;2023-01-13T09:09:09;100267.47;;;8.23;78.49
76060;BME280;64759;52.220;5.170;2023-01-13T09:11:39;100270.31;;;8.39;77.14
76060;BME280;64759;52.220;5.170;2023-01-13T09:14:26;100281.06;;;8.34;77.88
76060;BME280;64759;52.220;5.170;2023-01-13T09:16:51;100261.47;;;8.41;77.92
76060;BME280;64759;52.220;5.170;2023-01-13T09:19:17;100276.69;;;8.44;77.04
76060;BME280;64759;52.220;5.170;2023-01-13T09:21:42;100284.53;;;8.43;77.51
76060;BME280;64759;52.220;5.170;2023-01-13T09:24:08;100273.72;;;8.39;77.93
76060;BME280;64759;52.220;5.170;2023-01-13T09:26:34;100270.03;;;8.42;77.35
76060;BME280;64759;52.220;5.170;2023-01-13T09:28:59;100279.81;;;8.38;77.87
76060;BME280;64759;52.220;5.170;2023-01-13T09:31:24;100281.44;;;8.39;78.12
76060;BME280;64759;52.220;5.170;2023-01-13T09:33:50;100282.22;;;8.49;77.89
76060;BME280;64759;52.220;5.170;2023-01-13T09:36:34;100287.50;;;8.48;77.92
76060;BME280;64759;52.220;5.170;2023-01-13T09:38:59;100285.34;;;8.53;77.69
76060;BME280;64759;52.220;5.170;2023-01-13T09:41:26;100291.59;;;8.50;77.29
76060;BME280;64759;52.220;5.170;2023-01-13T09:49:43;100298.94;;;8.45;76.87
76060;BME280;64759;52.220;5.170;2023-01-13T09:52:14;100297.28;;;8.54;77.02
76060;BME280;64759;52.220;5.170;2023-01-13T09:54:58;100294.03;;;8.52;77.27
76060;BME280;64759;52.220;5.170;2023-01-13T09:57:26;100305.44;;;8.59;77.36
76060;BME280;64759;52.220;5.170;2023-01-13T09:59:52;100308.41;;;8.64;77.20
76060;BME280;64759;52.220;5.170;2023-01-13T10:05:40;100323.47;;;8.69;77.23
76060;BME280;64759;52.220;5.170;2023-01-13T10:08:12;100330.81;;;8.64;77.16
76060;BME280;64759;52.220;5.170;2023-01-13T10:10:44;100345.06;;;8.58;77.02
76060;BME280;64759;52.220;5.170;2023-01-13T10:13:21;100328.06;;;8.65;76.87
76060;BME280;64759;52.220;5.170;2023-01-13T10:16:05;100336.22;;;8.70;76.86
76060;BME280;64759;52.220;5.170;2023-01-13T10:27:11;100363.63;;;8.81;74.06
76060;BME280;64759;52.220;5.170;2023-01-13T10:29:39;100348.97;;;8.81;73.48
76060;BME280;64759;52.220;5.170;2023-01-13T10:32:04;100355.34;;;8.87;73.88
76060;BME280;64759;52.220;5.170;2023-01-13T10:34:30;100359.53;;;8.88;73.26
76060;BME280;64759;52.220;5.170;2023-01-13T10:37:02;100362.34;;;8.94;72.73
76060;BME280;64759;52.220;5.170;2023-01-13T10:39:44;100364.00;;;8.95;72.02
76060;BME280;64759;52.220;5.170;2023-01-13T10:42:17;100349.81;;;8.99;71.60
76060;BME280;64759;52.220;5.170;2023-01-13T10:47:29;100361.09;;;9.08;71.37
76060;BME280;64759;52.220;5.170;2023-01-13T10:52:32;100374.38;;;9.13;71.41
76060;BME280;64759;52.220;5.170;2023-01-13T10:55:01;100371.91;;;9.21;71.46
76060;BME280;64759;52.220;5.170;2023-01-13T10:57:27;100373.69;;;9.20;70.85
76060;BME280;64759;52.220;5.170;2023-01-13T10:59:53;100385.88;;;9.28;70.75
76060;BME280;64759;52.220;5.170;2023-01-13T11:02:25;100373.09;;;9.27;70.85
76060;BME280;64759;52.220;5.170;2023-01-13T11:07:23;100383.03;;;9.21;70.69
76060;BME280;64759;52.220;5.170;2023-01-13T11:10:09;100382.63;;;9.26;70.99
76060;BME280;64759;52.220;5.170;2023-01-13T11:12:47;100383.97;;;9.30;71.19
76060;BME280;64759;52.220;5.170;2023-01-13T11:15:19;100383.41;;;9.27;70.94
76060;BME280;64759;52.220;5.170;2023-01-13T11:18:22;100391.28;;;9.35;71.24
76060;BME280;64759;52.220;5.170;2023-01-13T11:20:47;100405.41;;;9.40;71.04
76060;BME280;64759;52.220;5.170;2023-01-13T11:25:42;100402.00;;;9.40;71.08
76060;BME280;64759;52.220;5.170;2023-01-13T11:30:54;100405.91;;;9.44;71.18
76060;BME280;64759;52.220;5.170;2023-01-13T11:33:46;100410.56;;;9.40;71.16
76060;BME280;64759;52.220;5.170;2023-01-13T11:36:19;100417.22;;;9.43;71.23
76060;BME280;64759;52.220;5.170;2023-01-13T11:38:50;100427.69;;;9.41;70.69
76060;BME280;64759;52.220;5.170;2023-01-13T11:46:29;100428.47;;;9.51;70.38
76060;BME280;64759;52.220;5.170;2023-01-13T11:48:56;100434.34;;;9.44;70.54
76060;BME280;64759;52.220;5.170;2023-01-13T11:57:10;100439.22;;;9.47;71.08
76060;BME280;64759;52.220;5.170;2023-01-13T12:05:28;100451.63;;;9.43;70.06
76060;BME280;64759;52.220;5.170;2023-01-13T12:10:54;100446.31;;;9.45;70.00
76060;BME280;64759;52.220;5.170;2023-01-13T12:16:27;100452.31;;;9.45;69.99
76060;BME280;64759;52.220;5.170;2023-01-13T12:27:17;100474.84;;;9.53;69.06
76060;BME280;64759;52.220;5.170;2023-01-13T12:29:45;100478.66;;;9.49;68.98
76060;BME280;64759;52.220;5.170;2023-01-13T12:32:30;100470.25;;;9.47;69.08
76060;BME280;64759;52.220;5.170;2023-01-13T12:35:15;100471.34;;;9.44;68.50
76060;BME280;64759;52.220;5.170;2023-01-13T12:37:53;100485.72;;;9.56;68.91
76060;BME280;64759;52.220;5.170;2023-01-13T12:40:34;100488.44;;;9.55;68.83
76060;BME280;64759;52.220;5.170;2023-01-13T12:45:49;100494.00;;;9.60;68.97
76060;BME280;64759;52.220;5.170;2023-01-13T12:51:25;100499.25;;;9.77;69.15
76060;BME280;64759;52.220;5.170;2023-01-13T12:53:51;100499.63;;;9.73;68.64
76060;BME280;64759;52.220;5.170;2023-01-13T12:58:49;100505.34;;;9.76;68.93
76060;BME280;64759;52.220;5.170;2023-01-13T13:01:15;100517.06;;;9.71;68.59
76060;BME280;64759;52.220;5.170;2023-01-13T13:04:09;100533.06;;;9.57;68.30
76060;BME280;64759;52.220;5.170;2023-01-13T13:06:36;100525.69;;;9.62;67.82
76060;BME280;64759;52.220;5.170;2023-01-13T13:09:12;100520.09;;;9.66;67.74
76060;BME280;64759;52.220;5.170;2023-01-13T13:11:46;100532.19;;;9.66;68.30
76060;BME280;64759;52.220;5.170;2023-01-13T13:19:58;100544.97;;;9.77;68.36
76060;BME280;64759;52.220;5.170;2023-01-13T13:27:39;100559.22;;;9.81;67.76
76060;BME280;64759;52.220;5.170;2023-01-13T13:30:29;100564.66;;;9.88;67.90
76060;BME280;64759;52.220;5.170;2023-01-13T13:33:23;100562.25;;;9.76;68.09
76060;BME280;64759;52.220;5.170;2023-01-13T13:35:58;100566.50;;;9.68;68.09
76060;BME280;64759;52.220;5.170;2023-01-13T13:41:42;100572.56;;;9.76;68.18
76060;BME280;64759;52.220;5.170;2023-01-13T13:44:38;100568.94;;;9.69;68.71
76060;BME280;64759;52.220;5.170;2023-01-13T13:47:22;100587.72;;;9.62;68.84
76060;BME280;64759;52.220;5.170;2023-01-13T13:49:49;100591.13;;;9.62;69.18
76060;BME280;64759;52.220;5.170;2023-01-13T13:54:50;100577.00;;;9.57;68.86
76060;BME280;64759;52.220;5.170;2023-01-13T13:57:18;100602.69;;;9.58;68.66
76060;BME280;64759;52.220;5.170;2023-01-13T13:59:44;100607.47;;;9.53;69.31
76060;BME280;64759;52.220;5.170;2023-01-13T14:02:30;100602.28;;;9.53;68.95
76060;BME280;64759;52.220;5.170;2023-01-13T14:05:27;100607.34;;;9.55;69.10
76060;BME280;64759;52.220;5.170;2023-01-13T14:08:01;100614.56;;;9.51;69.20
76060;BME280;64759;52.220;5.170;2023-01-13T14:10:38;100622.69;;;9.66;69.41
76060;BME280;64759;52.220;5.170;2023-01-13T14:15:38;100642.03;;;9.62;69.45
76060;BME280;64759;52.220;5.170;2023-01-13T14:18:11;100648.00;;;9.62;69.08
76060;BME280;64759;52.220;5.170;2023-01-13T14:20:38;100638.47;;;9.53;69.70
76060;BME280;64759;52.220;5.170;2023-01-13T14:23:04;100657.13;;;9.57;69.68
76060;BME280;64759;52.220;5.170;2023-01-13T14:27:56;100674.41;;;9.56;70.07
76060;BME280;64759;52.220;5.170;2023-01-13T14:30:25;100673.72;;;9.54;70.14
76060;BME280;64759;52.220;5.170;2023-01-13T14:32:51;100683.00;;;9.47;70.03
76060;BME280;64759;52.220;5.170;2023-01-13T14:35:17;100675.25;;;9.47;71.28
76060;BME280;64759;52.220;5.170;2023-01-13T14:37:44;100693.59;;;9.15;73.19
76060;BME280;64759;52.220;5.170;2023-01-13T14:40:50;100684.78;;;9.18;73.20
76060;BME280;64759;52.220;5.170;2023-01-13T14:43:17;100691.53;;;9.09;74.50
76060;BME280;64759;52.220;5.170;2023-01-13T14:45:59;100688.84;;;9.11;74.56
76060;BME280;64759;52.220;5.170;2023-01-13T14:48:31;100700.13;;;9.10;74.59
76060;BME280;64759;52.220;5.170;2023-01-13T14:51:01;100697.81;;;9.16;73.99
76060;BME280;64759;52.220;5.170;2023-01-13T14:53:37;100713.59;;;9.23;73.87
76060;BME280;64759;52.220;5.170;2023-01-13T14:59:41;100708.03;;;9.28;71.74
76060;BME280;64759;52.220;5.170;2023-01-13T15:10:31;100737.13;;;9.30;71.17
76060;BME280;64759;52.220;5.170;2023-01-13T15:13:00;100732.22;;;9.27;71.49
76060;BME280;64759;52.220;5.170;2023-01-13T15:17:55;100750.31;;;9.36;71.05
76060;BME280;64759;52.220;5.170;2023-01-13T15:20:23;100750.88;;;9.40;70.99
76060;BME280;64759;52.220;5.170;2023-01-13T15:22:50;100754.38;;;9.29;70.96
76060;BME280;64759;52.220;5.170;2023-01-13T15:25:16;100766.63;;;9.37;70.92
76060;BME280;64759;52.220;5.170;2023-01-13T15:27:45;100790.31;;;9.42;71.11